Time;durP1;ratioP1;P1;durP2;ratioP2;P2;SDS_P1;SDS_P2;PMS_P1;PMS_P2;Temp;Humidity;BMP_temperature;BMP_pressure;BME280_temperature;BME280_humidity;BME280_pressure;Samples;Min_cycle;Max_cycle;Signal;HPM_P1;HPM_P2
2022/05/30 00:00:19;;;;;;;7.60;1.50;;;;;;;8.21;97.03;100452.48;107949;1278;74901;-85
2022/05/30 00:02:48;;;;;;;6.50;1.70;;;;;;;8.21;96.45;100452.98;108073;1277;71444;-84
2022/05/30 00:05:19;;;;;;;4.70;1.50;;;;;;;8.21;95.98;100454.20;108010;1279;73939;-84
2022/05/30 00:08:09;;;;;;;7.20;2.00;;;;;;;8.21;95.71;100448.91;108047;1279;63039;-84
2022/05/30 00:10:56;;;;;;;7.00;1.70;;;;;;;8.21;95.46;100447.69;108058;1279;61050;-84
2022/05/30 00:13:23;;;;;;;9.30;1.80;;;;;;;8.21;95.37;100445.27;108043;1278;76431;-84
2022/05/30 00:15:55;;;;;;;6.70;1.70;;;;;;;8.19;95.34;100451.25;107976;1279;71998;-84
2022/05/30 00:18:22;;;;;;;10.60;2.70;;;;;;;8.16;95.43;100450.76;108074;1277;72789;-84
2022/05/30 00:20:49;;;;;;;9.60;1.90;;;;;;;8.14;95.44;100449.80;108055;1280;61414;-85
2022/05/30 00:23:16;;;;;;;6.70;1.60;;;;;;;8.13;95.40;100452.40;108080;1277;62077;-84
2022/05/30 00:25:43;;;;;;;10.30;1.50;;;;;;;8.10;95.14;100455.90;107996;1279;75933;-85
2022/05/30 00:28:10;;;;;;;6.20;1.40;;;;;;;8.08;95.19;100455.70;107735;1279;72781;-85
2022/05/30 00:30:41;;;;;;;7.80;1.40;;;;;;;8.05;95.13;100455.84;107974;1279;72649;-84
2022/05/30 00:33:10;;;;;;;8.80;2.40;;;;;;;8.04;95.27;100454.08;107903;1279;61989;-84
2022/05/30 00:35:38;;;;;;;7.10;1.90;;;;;;;8.03;95.71;100455.27;107838;1279;60258;-85
2022/05/30 00:38:11;;;;;;;14.50;2.50;;;;;;;8.01;95.97;100456.50;108084;1279;76135;-84
2022/05/30 00:40:41;;;;;;;11.30;2.40;;;;;;;7.99;96.02;100456.72;108023;1279;73396;-84
2022/05/30 00:43:29;;;;;;;10.40;2.30;;;;;;;7.97;95.72;100454.94;108199;1277;74308;-84
2022/05/30 00:46:11;;;;;;;;;;;;;;;;;;;;;
2022/05/30 00:48:47;;;;;;;9.40;1.90;;;;;;;7.97;95.92;100457.79;108335;1279;61283;-85
2022/05/30 00:51:17;;;;;;;7.20;1.60;;;;;;;7.96;95.54;100456.98;108473;1278;74910;-85
2022/05/30 00:53:54;;;;;;;12.60;2.30;;;;;;;7.96;95.49;100451.53;108309;1278;72226;-85
2022/05/30 00:56:36;;;;;;;4.70;1.10;;;;;;;7.96;95.66;100450.31;108143;1279;73783;-83
2022/05/30 00:59:07;;;;;;;2.70;0.90;;;;;;;7.96;95.21;100450.17;107967;1279;61400;-85
2022/05/30 01:01:40;;;;;;;6.30;1.30;;;;;;;7.95;95.31;100449.20;107919;1280;60697;-85
2022/05/30 01:07:08;;;;;;;9.60;1.80;;;;;;;7.93;95.87;100450.45;108192;1278;71642;-83
2022/05/30 01:09:40;;;;;;;11.10;1.80;;;;;;;7.92;95.86;100450.24;107842;1279;73655;-84
2022/05/30 01:12:11;;;;;;;7.80;2.00;;;;;;;7.91;95.75;100443.35;107818;1277;62081;-85
2022/05/30 01:14:42;;;;;;;4.70;1.40;;;;;;;7.88;96.10;100444.00;108145;1277;61477;-84
2022/05/30 01:17:13;;;;;;;10.20;1.70;;;;;;;7.88;96.24;100444.13;107960;1281;75157;-84
2022/05/30 01:20:32;;;;;;;6.20;1.50;;;;;;;7.86;96.40;100446.48;107991;1280;71871;-84
2022/05/30 01:23:14;;;;;;;3.40;1.30;;;;;;;7.83;96.53;100444.90;107647;1280;74239;-84
2022/05/30 01:26:03;;;;;;;7.20;1.60;;;;;;;7.81;96.39;100438.90;108057;1279;60219;-84
2022/05/30 01:29:04;;;;;;;8.30;1.70;;;;;;;7.80;96.49;100437.09;108097;1278;60743;-85
2022/05/30 01:31:32;;;;;;;7.30;1.60;;;;;;;7.79;96.88;100435.48;108106;1279;75067;-84
2022/05/30 01:33:59;;;;;;;14.70;2.30;;;;;;;7.77;96.81;100441.21;107987;1279;71686;-84
2022/05/30 01:36:50;;;;;;;5.50;1.20;;;;;;;7.77;96.87;100441.11;108154;1277;73476;-85
2022/05/30 01:39:16;;;;;;;6.20;1.60;;;;;;;7.76;96.84;100440.81;108159;1278;61262;-84
2022/05/30 01:41:43;;;;;;;9.60;2.00;;;;;;;7.75;96.80;100437.70;107866;1280;60561;-84
2022/05/30 01:44:10;;;;;;;9.10;1.70;;;;;;;7.76;96.79;100438.15;107782;1281;75297;-83
2022/05/30 01:46:39;;;;;;;9.60;1.70;;;;;;;7.76;96.78;100437.08;108171;1278;72527;-83
2022/05/30 01:49:12;;;;;;;6.90;1.50;;;;;;;7.77;96.80;100435.42;108164;1280;73012;-84
2022/05/30 01:51:39;;;;;;;8.40;2.20;;;;;;;7.78;96.91;100436.04;108174;1278;61332;-84
2022/05/30 01:54:08;;;;;;;3.40;1.40;;;;;;;7.77;96.53;100434.73;108154;1281;59705;-83
2022/05/30 01:56:35;;;;;;;11.80;2.10;;;;;;;7.76;96.09;100431.17;108545;1278;75416;-83
2022/05/30 01:59:15;;;;;;;9.50;1.60;;;;;;;7.75;96.25;100435.82;108568;1278;71501;-83
2022/05/30 02:01:45;;;;;;;10.80;1.80;;;;;;;7.74;96.13;100433.65;108155;1280;73681;-84
2022/05/30 02:04:16;;;;;;;3.80;1.60;;;;;;;7.71;96.02;100431.49;108152;1280;61367;-83
2022/05/30 02:06:46;;;;;;;8.40;1.80;;;;;;;7.74;96.23;100438.56;108067;1280;60775;-84
2022/05/30 02:09:18;;;;;;;5.10;1.60;;;;;;;7.74;96.35;100437.18;108079;1278;75159;-84
2022/05/30 02:11:45;;;;;;;9.40;1.80;;;;;;;7.74;96.18;100434.63;108068;1280;71160;-85
2022/05/30 02:14:14;;;;;;;12.20;1.90;;;;;;;7.77;96.27;100435.77;107834;1281;73939;-83
2022/05/30 02:19:33;;;;;;;5.90;2.00;;;;;;;7.81;96.36;100433.66;108161;1278;60352;-83
2022/05/30 02:22:12;;;;;;;8.50;2.20;;;;;;;7.81;96.83;100434.63;108007;1278;75103;-83
2022/05/30 02:24:49;;;;;;;5.10;1.50;;;;;;;7.84;96.63;100434.59;108447;1279;73930;-83
2022/05/30 02:27:17;;;;;;;7.90;1.90;;;;;;;7.84;96.89;100433.67;108170;1281;74328;-83
2022/05/30 02:29:52;;;;;;;6.20;1.50;;;;;;;7.84;96.91;100434.52;108389;1280;61427;-83
2022/05/30 02:32:19;;;;;;;7.40;1.40;;;;;;;7.84;96.73;100437.20;108422;1280;60606;-83
2022/05/30 02:37:32;;;;;;;7.90;1.70;;;;;;;7.82;97.95;100437.23;108190;1278;70358;-84
2022/05/30 02:39:59;;;;;;;7.30;2.00;;;;;;;7.80;97.51;100433.36;108144;1280;71827;-83
2022/05/30 02:42:29;;;;;;;5.70;1.80;;;;;;;7.78;98.03;100433.75;108076;1281;61549;-83
2022/05/30 02:44:55;;;;;;;7.60;2.30;;;;;;;7.76;98.23;100433.02;108163;1278;60211;-84
2022/05/30 02:47:25;;;;;;;7.40;2.20;;;;;;;7.76;97.96;100432.23;108163;1278;76390;-83
2022/05/30 02:49:57;;;;;;;8.00;2.00;;;;;;;7.74;98.10;100427.25;107878;1281;72939;-84
2022/05/30 02:52:24;;;;;;;6.40;1.60;;;;;;;7.74;98.14;100426.02;107777;1280;72951;-84
2022/05/30 02:54:54;;;;;;;3.30;1.40;;;;;;;7.73;98.18;100424.70;107922;1279;60863;-84
2022/05/30 02:57:21;;;;;;;6.80;1.40;;;;;;;7.74;98.14;100426.63;107841;1280;61871;-84
2022/05/30 03:00:08;;;;;;;;;;;;;;;;;;;;;
2022/05/30 03:02:38;;;;;;;6.20;1.40;;;;;;;7.74;98.31;100429.88;108019;1280;72162;-83
2022/05/30 03:05:19;;;;;;;;;;;;;;;;;;;;;
2022/05/30 03:07:48;;;;;;;7.30;1.30;;;;;;;7.77;98.01;100434.80;108071;1280;63046;-84
2022/05/30 03:10:18;;;;;;;6.20;1.50;;;;;;;7.78;98.17;100435.33;108110;1279;59562;-84
2022/05/30 03:12:48;;;;;;;4.40;1.40;;;;;;;7.79;98.34;100436.17;108107;1280;76166;-84
2022/05/30 03:15:25;;;;;;;7.80;1.70;;;;;;;7.78;97.85;100432.90;108154;1279;71306;-84
2022/05/30 03:18:21;;;;;;;12.30;2.10;;;;;;;7.81;98.06;100437.89;108228;1278;74431;-84
2022/05/30 03:20:56;;;;;;;8.20;1.60;;;;;;;7.81;97.66;100438.05;108120;1277;61898;-84
2022/05/30 03:23:23;;;;;;;6.80;1.40;;;;;;;7.81;97.59;100442.27;107963;1280;59957;-84
2022/05/30 03:25:53;;;;;;;8.50;1.70;;;;;;;7.81;97.73;100445.73;108021;1279;76127;-84
2022/05/30 03:28:25;;;;;;;8.20;1.90;;;;;;;7.81;97.06;100443.52;107968;1277;71484;-83
2022/05/30 03:30:55;;;;;;;11.10;1.90;;;;;;;7.81;97.00;100443.86;107873;1280;74153;-84
2022/05/30 03:33:22;;;;;;;3.60;1.40;;;;;;;7.82;96.89;100441.09;108150;1278;59688;-83
2022/05/30 03:35:50;;;;;;;4.20;2.00;;;;;;;7.84;96.76;100445.28;108011;1278;62045;-84
2022/05/30 03:38:16;;;;;;;4.30;1.40;;;;;;;7.85;97.07;100448.48;107861;1277;75153;-84
2022/05/30 03:40:43;;;;;;;11.70;1.90;;;;;;;7.87;96.80;100448.48;108151;1279;72265;-84
2022/05/30 03:43:13;;;;;;;7.10;1.60;;;;;;;7.89;96.86;100451.30;107971;1279;74118;-84
2022/05/30 03:45:44;;;;;;;7.20;2.10;;;;;;;7.91;96.38;100450.84;108027;1279;61171;-83
2022/05/30 03:48:51;;;;;;;;;;;;;;;;;;;;;
2022/05/30 03:51:38;;;;;;;3.70;1.80;;;;;;;7.95;96.32;100452.37;108091;1279;76356;-85
2022/05/30 03:54:15;;;;;;;;;;;;;;;;;;;;;
2022/05/30 03:56:59;;;;;;;3.90;1.50;;;;;;;8.01;96.30;100456.99;108177;1277;72986;-83
2022/05/30 03:59:26;;;;;;;8.40;1.90;;;;;;;8.04;96.00;100462.86;108077;1277;60329;-85
2022/05/30 04:01:59;;;;;;;4.60;1.70;;;;;;;8.07;95.96;100461.69;108073;1279;60625;-84
2022/05/30 04:04:26;;;;;;;7.60;2.30;;;;;;;8.10;95.45;100461.98;107883;1277;75575;-83
2022/05/30 04:06:55;;;;;;;7.20;1.70;;;;;;;8.13;95.23;100457.00;107980;1279;71420;-84
2022/05/30 04:09:24;;;;;;;8.30;1.50;;;;;;;8.17;95.08;100458.81;107839;1279;75020;-83
2022/05/30 04:11:51;;;;;;;12.60;1.80;;;;;;;8.20;94.38;100458.91;108148;1278;61489;-83
2022/05/30 04:14:18;;;;;;;9.60;1.50;;;;;;;8.20;93.49;100457.52;108164;1277;60755;-84
2022/05/30 04:16:48;;;;;;;7.90;1.70;;;;;;;8.20;93.93;100450.09;108214;1278;76255;-84
2022/05/30 04:19:15;;;;;;;4.70;1.40;;;;;;;8.24;93.47;100452.48;108203;1279;75257;-84
2022/05/30 04:21:42;;;;;;;11.20;1.70;;;;;;;8.29;93.73;100450.36;108214;1278;73085;-84
2022/05/30 04:24:14;;;;;;;7.40;1.60;;;;;;;8.35;93.51;100452.69;108300;1278;61063;-84
2022/05/30 04:26:43;;;;;;;4.90;1.60;;;;;;;8.41;93.57;100457.38;108081;1279;60579;-85
2022/05/30 04:29:10;;;;;;;6.70;1.10;;;;;;;8.47;93.13;100460.78;108262;1278;75067;-82
2022/05/30 04:31:46;;;;;;;5.70;1.60;;;;;;;8.50;92.69;100464.11;108017;1279;71455;-83
2022/05/30 04:34:18;;;;;;;10.90;2.70;;;;;;;8.54;92.46;100462.40;107893;1279;74084;-83
2022/05/30 04:36:47;;;;;;;5.60;1.20;;;;;;;8.59;91.86;100464.18;108133;1277;62908;-82
2022/05/30 04:39:16;;;;;;;7.20;1.60;;;;;;;8.65;91.69;100466.04;108018;1279;60620;-82
2022/05/30 04:41:43;;;;;;;9.30;1.80;;;;;;;8.69;90.88;100466.27;108115;1278;72864;-83
2022/05/30 04:44:10;;;;;;;6.50;1.40;;;;;;;8.73;91.03;100469.90;107990;1278;72748;-83
2022/05/30 04:46:39;;;;;;;9.70;1.50;;;;;;;8.76;90.33;100471.97;108073;1278;72870;-82
2022/05/30 04:49:06;;;;;;;8.90;1.60;;;;;;;8.80;90.22;100473.06;108129;1278;61370;-83
2022/05/30 04:51:54;;;;;;;;;;;;;;;;;;;;;
2022/05/30 04:54:24;;;;;;;10.90;2.80;;;;;;;8.89;90.73;100477.98;108163;1278;74980;-82
2022/05/30 04:57:02;;;;;;;;;;;;;;;;;;;;;
2022/05/30 04:59:31;;;;;;;6.10;1.90;;;;;;;8.93;89.46;100483.41;108026;1278;72914;-82
2022/05/30 05:01:58;;;;;;;8.70;1.70;;;;;;;8.94;89.26;100483.94;108184;1277;62010;-83
2022/05/30 05:04:25;;;;;;;8.70;2.00;;;;;;;8.96;89.76;100484.23;108097;1278;60233;-83
2022/05/30 05:06:52;;;;;;;7.50;1.90;;;;;;;9.00;89.51;100486.83;108150;1277;77010;-83
2022/05/30 05:09:46;;;;;;;7.10;1.50;;;;;;;9.03;89.56;100490.04;107902;1278;75256;-83
2022/05/30 05:12:16;;;;;;;11.30;2.00;;;;;;;9.08;89.53;100490.21;108102;1278;73286;-83
2022/05/30 05:14:42;;;;;;;8.40;1.80;;;;;;;9.07;88.92;100494.91;107995;1280;62137;-83
2022/05/30 05:17:11;;;;;;;5.30;1.60;;;;;;;9.07;88.51;100494.25;108203;1278;59300;-83
2022/05/30 05:19:40;;;;;;;10.80;2.40;;;;;;;9.05;87.84;100491.79;107958;1278;75850;-83
2022/05/30 05:22:15;;;;;;;6.20;2.50;;;;;;;9.06;88.09;100488.36;107733;1280;70914;-83
2022/05/30 05:24:42;;;;;;;8.80;1.40;;;;;;;9.08;88.25;100486.72;108125;1278;73343;-83
2022/05/30 05:27:09;;;;;;;5.20;1.80;;;;;;;9.07;87.57;100487.67;108130;1277;61879;-83
2022/05/30 05:29:43;;;;;;;8.30;2.80;;;;;;;9.13;88.21;100492.85;108174;1277;62031;-84
2022/05/30 05:32:15;;;;;;;11.30;2.80;;;;;;;9.18;87.75;100491.25;107993;1277;75894;-83
2022/05/30 05:34:50;;;;;;;8.70;1.90;;;;;;;9.24;88.05;100495.02;108113;1277;71409;-86
2022/05/30 05:37:22;;;;;;;5.50;2.20;;;;;;;9.29;87.80;100487.23;108037;1278;73726;-84
2022/05/30 05:40:06;;;;;;;15.70;3.40;;;;;;;9.35;87.57;100492.49;108079;1279;63548;-84
2022/05/30 05:42:46;;;;;;;7.30;2.40;;;;;;;9.41;86.84;100493.06;108213;1278;60916;-84
2022/05/30 05:45:21;;;;;;;6.90;2.50;;;;;;;9.47;87.06;100492.67;107990;1277;74990;-84
2022/05/30 05:47:47;;;;;;;4.80;1.80;;;;;;;9.56;87.05;100497.01;108281;1279;71427;-83
2022/05/30 05:50:16;;;;;;;7.30;2.50;;;;;;;9.58;85.52;100500.64;108515;1279;72049;-84
2022/05/30 05:52:54;;;;;;;5.20;2.50;;;;;;;9.58;84.62;100501.92;108578;1277;61679;-84
2022/05/30 05:55:26;;;;;;;7.80;2.20;;;;;;;9.60;84.93;100502.02;108643;1277;59562;-85
2022/05/30 05:57:55;;;;;;;7.50;3.10;;;;;;;9.60;84.17;100504.89;108540;1278;76721;-85
2022/05/30 06:00:22;;;;;;;4.50;2.50;;;;;;;9.57;83.94;100503.45;108467;1279;71412;-85
2022/05/30 06:02:52;;;;;;;9.00;3.10;;;;;;;9.60;84.79;100502.95;108522;1277;73271;-85
2022/05/30 06:05:25;;;;;;;5.80;2.30;;;;;;;9.64;84.78;100505.97;108027;1277;62269;-85
2022/05/30 06:08:12;;;;;;;;;;;;;;;;;;;;;
2022/05/30 06:11:05;;;;;;;6.40;3.00;;;;;;;9.72;84.10;100503.48;108383;1277;77112;-85
2022/05/30 06:13:27;;;;;;;10.20;2.40;;;;;;;9.79;83.97;100508.69;108288;1277;72352;-86
2022/05/30 06:15:54;;;;;;;5.40;1.90;;;;;;;9.83;83.70;100504.74;107942;1278;72939;-85
2022/05/30 06:18:21;;;;;;;6.30;2.20;;;;;;;9.86;82.85;100505.26;108181;1278;60625;-84
2022/05/30 06:21:00;;;;;;;6.30;2.60;;;;;;;9.91;81.84;100507.41;108153;1279;60630;-85
2022/05/30 06:23:37;;;;;;;9.00;2.40;;;;;;;9.99;81.40;100510.05;108200;1279;73944;-85
2022/05/30 06:26:13;;;;;;;7.40;2.20;;;;;;;10.07;80.95;100510.20;108356;1277;73343;-86
2022/05/30 06:28:49;;;;;;;8.40;3.00;;;;;;;10.15;80.14;100510.83;107950;1278;73920;-86
2022/05/30 06:31:24;;;;;;;8.70;2.10;;;;;;;10.20;78.46;100508.80;108132;1279;63053;-87
2022/05/30 06:34:03;;;;;;;11.60;3.30;;;;;;;10.28;79.02;100511.30;108380;1277;60816;-86
2022/05/30 06:36:37;;;;;;;6.20;3.10;;;;;;;10.39;79.51;100510.58;108199;1279;76035;-83
2022/05/30 06:39:07;;;;;;;6.60;3.20;;;;;;;10.48;79.22;100511.27;108143;1277;71983;-86
2022/05/30 06:41:39;;;;;;;7.60;2.80;;;;;;;10.60;79.20;100515.38;108455;1277;74023;-83
2022/05/30 06:44:07;;;;;;;8.50;2.90;;;;;;;10.70;78.21;100515.95;108364;1279;62717;-85
2022/05/30 06:46:54;;;;;;;6.90;3.00;;;;;;;10.82;77.94;100512.63;108487;1279;62361;-85
2022/05/30 06:49:33;;;;;;;7.90;2.60;;;;;;;10.94;77.11;100515.95;108248;1279;75149;-85
2022/05/30 06:52:23;;;;;;;8.10;3.10;;;;;;;11.04;76.23;100521.85;108148;1277;72708;-84
2022/05/30 06:54:49;;;;;;;7.20;3.00;;;;;;;11.09;74.84;100520.27;108169;1279;73103;-84
2022/05/30 07:00:05;;;;;;;8.00;2.00;;;;;;;11.08;72.84;100523.56;108158;1279;60132;-84
2022/05/30 07:02:47;;;;;;;;;;;;;;;;;;;;;
2022/05/30 07:05:28;;;;;;;4.10;2.40;;;;;;;11.03;73.11;100523.21;107999;1278;71499;-85
2022/05/30 07:07:58;;;;;;;4.30;1.70;;;;;;;10.98;72.88;100524.53;108258;1278;73393;-85
2022/05/30 07:10:42;;;;;;;4.30;2.50;;;;;;;10.90;72.85;100526.17;108055;1279;62541;-85
2022/05/30 07:13:21;;;;;;;5.80;2.90;;;;;;;10.79;73.03;100528.33;108155;1279;60988;-84
2022/05/30 07:15:53;;;;;;;7.40;3.10;;;;;;;10.62;71.65;100529.05;108151;1279;73939;-85
2022/05/30 07:18:40;;;;;;;6.10;3.40;;;;;;;10.48;71.18;100529.64;108123;1277;71752;-85
2022/05/30 07:21:13;;;;;;;17.90;3.00;;;;;;;10.33;71.75;100530.67;108218;1279;73708;-85
2022/05/30 07:23:43;;;;;;;6.90;2.50;;;;;;;10.25;72.20;100535.30;108595;1279;63397;-84
2022/05/30 07:26:24;;;;;;;;;;;;;;;;;;;;;
2022/05/30 07:29:07;;;;;;;;;;;;;;;;;;;;;
2022/05/30 07:31:37;;;;;;;5.50;2.20;;;;;;;10.01;74.62;100536.08;108656;1277;71471;-85
2022/05/30 07:34:04;;;;;;;6.30;2.50;;;;;;;9.98;75.32;100536.45;108578;1279;71975;-84
2022/05/30 07:36:31;;;;;;;8.10;2.80;;;;;;;9.97;75.56;100536.67;108600;1279;61933;-84
2022/05/30 07:38:58;;;;;;;7.70;3.40;;;;;;;9.95;75.28;100535.34;108622;1279;60603;-84
2022/05/30 07:41:27;;;;;;;5.70;2.50;;;;;;;9.98;75.63;100538.04;108587;1279;73768;-83
2022/05/30 07:43:54;;;;;;;5.00;3.00;;;;;;;10.05;75.92;100536.58;108516;1279;74414;-84
2022/05/30 07:46:25;;;;;;;4.10;2.70;;;;;;;10.15;76.01;100537.84;108060;1280;74012;-84
2022/05/30 07:48:53;;;;;;;8.90;3.40;;;;;;;10.21;75.02;100540.14;108262;1278;61248;-84
2022/05/30 07:51:20;;;;;;;9.50;3.60;;;;;;;10.27;75.31;100535.58;108192;1279;62949;-84
2022/05/30 07:53:50;;;;;;;11.20;2.50;;;;;;;10.35;74.67;100542.67;108170;1279;74910;-84
2022/05/30 07:56:18;;;;;;;15.80;4.10;;;;;;;10.34;74.46;100544.07;108077;1279;71573;-84
2022/05/30 07:58:45;;;;;;;6.30;3.30;;;;;;;10.34;74.88;100543.48;108146;1279;74910;-85
2022/05/30 08:01:15;;;;;;;5.90;2.50;;;;;;;10.32;74.56;100544.77;107866;1277;62318;-85
2022/05/30 08:03:46;;;;;;;10.60;3.50;;;;;;;10.32;74.86;100546.40;108155;1279;60646;-84
2022/05/30 08:06:19;;;;;;;8.90;3.60;;;;;;;10.29;74.86;100544.98;108340;1277;74739;-85
2022/05/30 08:08:47;;;;;;;10.40;2.90;;;;;;;10.28;75.15;100546.82;108181;1279;71805;-85
2022/05/30 08:11:15;;;;;;;4.40;2.20;;;;;;;10.27;75.44;100546.77;107944;1277;72798;-85
2022/05/30 08:13:46;;;;;;;7.80;2.60;;;;;;;10.25;75.64;100546.45;108126;1279;63847;-85
2022/05/30 08:16:16;;;;;;;8.50;2.40;;;;;;;10.22;75.29;100550.85;108171;1279;61095;-86
2022/05/30 08:19:04;;;;;;;11.00;3.20;;;;;;;10.19;75.09;100554.30;108250;1277;77823;-84
2022/05/30 08:21:42;;;;;;;4.80;1.90;;;;;;;10.22;75.46;100555.81;108083;1280;72773;-84
2022/05/30 08:24:09;;;;;;;11.10;2.00;;;;;;;10.25;75.13;100558.27;108061;1279;74373;-85
2022/05/30 08:26:38;;;;;;;7.50;1.70;;;;;;;10.31;74.34;100556.21;108161;1278;62708;-85
2022/05/30 08:29:04;;;;;;;4.20;1.90;;;;;;;10.34;72.61;100559.39;108110;1279;60512;-85
2022/05/30 08:31:31;;;;;;;3.20;1.10;;;;;;;10.38;72.56;100557.48;108013;1279;75168;-85
2022/05/30 08:33:58;;;;;;;8.50;1.30;;;;;;;10.44;72.06;100558.20;108060;1279;71504;-85
2022/05/30 08:36:25;;;;;;;5.80;1.10;;;;;;;10.49;71.59;100560.69;108098;1277;74205;-86
2022/05/30 08:41:46;;;;;;;4.20;1.10;;;;;;;10.52;71.13;100566.86;108275;1277;61769;-85
2022/05/30 08:41:47;;;;;;;3.50;1.00;;;;;;;10.58;70.68;100570.52;108212;1277;62032;-84
2022/05/30 08:44:16;;;;;;;5.90;1.20;;;;;;;10.65;69.60;100567.88;108050;1279;74863;-85
2022/05/30 08:46:55;;;;;;;3.60;1.30;;;;;;;10.71;69.58;100569.60;108246;1277;71629;-86
2022/05/30 08:49:28;;;;;;;3.70;1.60;;;;;;;10.76;68.92;100571.48;107862;1279;73088;-83
2022/05/30 08:52:44;;;;;;;6.60;1.50;;;;;;;10.76;69.22;100567.07;108211;1277;63716;-83
2022/05/30 08:55:35;;;;;;;4.90;1.30;;;;;;;10.92;69.57;100573.73;108066;1277;61346;-84
2022/05/30 08:58:17;;;;;;;7.20;1.30;;;;;;;11.05;68.82;100577.48;108264;1277;74914;-84
2022/05/30 09:00:49;;;;;;;4.30;0.90;;;;;;;11.17;67.78;100581.95;107849;1279;73292;-84
2022/05/30 09:03:27;;;;;;;4.80;1.30;;;;;;;11.34;67.39;100587.48;108058;1278;73177;-84
2022/05/30 09:05:59;;;;;;;4.40;1.00;;;;;;;11.51;66.20;100586.80;108571;1278;60919;-83
2022/05/30 09:08:33;;;;;;;4.00;1.00;;;;;;;11.63;66.37;100576.91;108517;1279;58951;-83
2022/05/30 09:11:15;;;;;;;4.60;1.10;;;;;;;11.86;64.87;100583.45;108316;1279;73907;-83
2022/05/30 09:13:47;;;;;;;20.40;3.10;;;;;;;12.07;63.91;100583.40;108177;1279;73338;-83
2022/05/30 09:16:21;;;;;;;6.50;1.30;;;;;;;12.30;63.12;100581.29;108151;1279;72909;-83
2022/05/30 09:18:52;;;;;;;1.70;0.70;;;;;;;12.49;61.81;100574.95;108357;1277;62064;-83
2022/05/30 09:21:29;;;;;;;1.90;0.40;;;;;;;12.70;61.07;100580.59;108319;1280;60765;-83
2022/05/30 09:23:56;;;;;;;4.20;0.90;;;;;;;12.86;60.20;100579.61;108162;1279;74999;-83
2022/05/30 09:26:25;;;;;;;2.70;0.90;;;;;;;13.00;59.89;100580.58;107647;1281;71559;-83
2022/05/30 09:28:54;;;;;;;9.40;1.10;;;;;;;13.10;58.36;100579.54;108233;1277;72824;-84
2022/05/30 09:31:21;;;;;;;2.00;0.80;;;;;;;13.15;58.66;100575.98;108018;1277;62454;-83
2022/05/30 09:33:57;;;;;;;8.40;1.10;;;;;;;13.26;58.37;100578.17;104142;1277;5509903;-83
2022/05/30 09:36:27;;;;;;;2.70;0.60;;;;;;;13.37;57.79;100576.91;108163;1279;74791;-83
2022/05/30 09:39:06;;;;;;;5.50;1.00;;;;;;;13.51;58.33;100576.95;108194;1279;71692;-82
2022/05/30 09:41:39;;;;;;;3.30;1.10;;;;;;;13.56;55.52;100575.30;107873;1279;71689;-83
2022/05/30 09:44:26;;;;;;;1.90;0.80;;;;;;;13.53;55.74;100577.83;108218;1277;61047;-83
2022/05/30 09:47:14;;;;;;;3.00;0.50;;;;;;;13.58;55.15;100577.89;108048;1279;62038;-82
2022/05/30 09:49:45;;;;;;;3.00;0.70;;;;;;;13.56;54.76;100574.07;107682;1279;75098;-84
2022/05/30 09:52:33;;;;;;;2.10;0.70;;;;;;;13.62;55.36;100575.40;107843;1279;71267;-84
2022/05/30 09:55:01;;;;;;;5.40;1.50;;;;;;;13.66;54.67;100576.29;108203;1277;71286;-84
2022/05/30 09:57:41;;;;;;;4.30;0.70;;;;;;;13.71;54.51;100576.11;108159;1279;60345;-85
2022/05/30 10:00:17;;;;;;;1.30;0.60;;;;;;;13.82;55.59;100569.02;108083;1279;62233;-84
2022/05/30 10:03:07;;;;;;;2.50;0.70;;;;;;;13.99;54.46;100577.85;108263;1277;76093;-83
2022/05/30 10:05:36;;;;;;;7.70;0.80;;;;;;;14.09;54.09;100577.23;108005;1279;72444;-83
2022/05/30 10:08:21;;;;;;;4.30;0.70;;;;;;;14.19;53.83;100577.73;108018;1279;74348;-83
2022/05/30 10:10:51;;;;;;;2.50;0.60;;;;;;;14.24;53.61;100577.81;108046;1279;60945;-83
2022/05/30 10:13:34;;;;;;;3.40;0.80;;;;;;;14.16;52.04;100583.99;108060;1279;61831;-84
2022/05/30 10:16:04;;;;;;;3.00;0.80;;;;;;;14.10;53.27;100584.98;108080;1279;76158;-84
2022/05/30 10:18:58;;;;;;;4.70;0.90;;;;;;;14.01;52.44;100588.94;108432;1279;72516;-84
2022/05/30 10:30:52;;;;;;;3.40;0.60;;;;;;;14.12;52.41;100596.41;108291;1277;76237;-83
2022/05/30 10:33:59;;;;;;;5.10;0.90;;;;;;;14.06;52.51;100598.90;108073;1280;71564;-84
2022/05/30 10:36:42;;;;;;;2.50;1.00;;;;;;;13.93;54.46;100600.23;107891;1279;73265;-84
2022/05/30 10:39:30;;;;;;;4.20;0.80;;;;;;;13.80;54.79;100606.09;108200;1277;61597;-84
2022/05/30 10:42:03;;;;;;;5.00;0.90;;;;;;;13.59;54.85;100612.95;108228;1277;61678;-84
2022/05/30 10:44:47;;;;;;;5.30;1.30;;;;;;;13.45;55.31;100608.49;108135;1277;75065;-84
2022/05/30 10:47:21;;;;;;;5.40;1.10;;;;;;;13.33;56.03;100616.55;107948;1280;71629;-84
2022/05/30 10:50:02;;;;;;;5.00;0.70;;;;;;;13.23;56.06;100622.58;108246;1277;72961;-84
2022/05/30 10:52:37;;;;;;;2.00;0.70;;;;;;;13.19;56.58;100622.42;108116;1279;60761;-85
2022/05/30 10:55:14;;;;;;;2.10;0.60;;;;;;;13.15;57.17;100623.39;108095;1279;60711;-85
2022/05/30 10:57:51;;;;;;;3.90;0.80;;;;;;;13.11;57.10;100620.56;108051;1279;75108;-84
2022/05/30 11:00:22;;;;;;;2.70;0.80;;;;;;;13.03;57.98;100625.98;107945;1279;71489;-84
2022/05/30 11:03:02;;;;;;;3.00;0.60;;;;;;;12.94;58.21;100629.36;108291;1277;72962;-84
2022/05/30 11:05:47;;;;;;;4.40;1.20;;;;;;;12.90;58.28;100630.64;108194;1279;60842;-85
2022/05/30 11:08:29;;;;;;;3.00;0.50;;;;;;;12.82;58.75;100629.66;108387;1279;61737;-85
2022/05/30 11:11:03;;;;;;;4.40;0.90;;;;;;;12.75;58.74;100626.77;108555;1278;74786;-82
2022/05/30 11:14:04;;;;;;;2.20;0.80;;;;;;;12.66;57.94;100625.75;108655;1277;71321;-83
2022/05/30 11:16:40;;;;;;;6.10;1.00;;;;;;;12.60;57.95;100622.39;108615;1279;73721;-83
2022/05/30 11:19:16;;;;;;;4.10;1.20;;;;;;;12.65;58.22;100619.18;108340;1279;60614;-83
2022/05/30 11:21:51;;;;;;;5.50;0.90;;;;;;;12.72;58.39;100616.75;108082;1280;60619;-84
2022/05/30 11:24:18;;;;;;;2.70;0.80;;;;;;;12.79;58.23;100620.27;107967;1278;74344;-84
2022/05/30 11:27:08;;;;;;;3.50;0.90;;;;;;;12.80;58.29;100618.25;108059;1280;71968;-84
2022/05/30 11:29:57;;;;;;;4.60;0.80;;;;;;;12.86;58.90;100622.41;108034;1277;74239;-84
2022/05/30 11:32:42;;;;;;;2.50;0.70;;;;;;;12.96;58.18;100622.54;108172;1280;59598;-84
2022/05/30 11:35:34;;;;;;;2.40;1.00;;;;;;;13.05;58.19;100624.24;108289;1277;61428;-84
2022/05/30 11:38:13;;;;;;;3.80;0.80;;;;;;;13.16;57.56;100623.51;108162;1279;75996;-83
2022/05/30 11:41:05;;;;;;;1.80;0.40;;;;;;;13.25;57.49;100626.05;108248;1277;71299;-84
2022/05/30 11:43:51;;;;;;;3.20;0.50;;;;;;;13.34;53.78;100627.04;108164;1279;73685;-84
2022/05/30 11:46:36;;;;;;;2.70;0.80;;;;;;;13.37;52.11;100630.25;108300;1277;61849;-84
2022/05/30 11:49:27;;;;;;;2.60;0.50;;;;;;;13.48;53.29;100628.88;108143;1279;60594;-85
2022/05/30 11:52:07;;;;;;;2.60;0.50;;;;;;;13.62;53.72;100625.44;108241;1277;76047;-84
2022/05/30 11:54:57;;;;;;;2.20;0.80;;;;;;;13.78;53.99;100628.36;108284;1277;72587;-84
2022/05/30 11:57:33;;;;;;;3.10;1.00;;;;;;;13.98;54.12;100624.09;108222;1277;73925;-85
2022/05/30 12:00:24;;;;;;;2.10;0.90;;;;;;;14.11;53.12;100624.64;108143;1279;60257;-85
2022/05/30 12:03:02;;;;;;;3.30;0.80;;;;;;;14.14;52.37;100624.08;108256;1277;60595;-83
2022/05/30 12:05:45;;;;;;;4.30;0.80;;;;;;;14.12;51.76;100624.16;108257;1278;75822;-83
2022/05/30 12:08:48;;;;;;;2.60;0.60;;;;;;;14.07;51.53;100624.42;108200;1277;72579;-83
2022/05/30 12:11:55;;;;;;;1.70;0.70;;;;;;;13.98;52.10;100630.00;108246;1277;73584;-84
2022/05/30 12:14:35;;;;;;;2.80;0.90;;;;;;;13.83;52.55;100630.09;108091;1279;61239;-84
2022/05/30 12:17:21;;;;;;;2.50;0.70;;;;;;;13.87;53.17;100631.47;108001;1279;61678;-84
2022/05/30 12:25:54;;;;;;;2.50;0.80;;;;;;;14.27;51.69;100623.45;108231;1277;73139;-84
2022/05/30 12:28:34;;;;;;;2.00;0.70;;;;;;;14.36;51.33;100627.09;108247;1277;60627;-84
2022/05/30 12:31:22;;;;;;;3.50;0.70;;;;;;;14.58;50.73;100620.55;108226;1277;59475;-83
2022/05/30 12:33:49;;;;;;;1.70;0.40;;;;;;;14.82;50.06;100622.15;107912;1279;75880;-83
2022/05/30 12:36:21;;;;;;;2.80;0.70;;;;;;;15.04;49.96;100622.23;107963;1279;71341;-83